Time;durP1;ratioP1;P1;durP2;ratioP2;P2;SDS_P1;SDS_P2;PMS_P1;PMS_P2;Temp;Humidity;BMP_temperature;BMP_pressure;BME280_temperature;BME280_humidity;BME280_pressure;Samples;Min_cycle;Max_cycle;Signal;HPM_P1;HPM_P2
2022/10/24 00:01:35;;;;;;;9.98;8.15;;;;;;;12.36;67.88;95638.84;5098675;28;20188;-70
2022/10/24 00:04:02;;;;;;;9.18;8.27;;;;;;;12.35;67.93;95640.00;5098642;28;20225;-70
2022/10/24 00:06:29;;;;;;;10.45;8.40;;;;;;;12.28;68.17;95631.50;5098180;28;20192;-70
2022/10/24 00:08:56;;;;;;;8.82;7.93;;;;;;;12.25;68.28;95634.94;5098951;28;20253;-71
2022/10/24 00:11:24;;;;;;;8.25;7.53;;;;;;;12.19;68.05;95631.63;5098116;28;20192;-70
2022/10/24 00:13:51;;;;;;;8.55;7.75;;;;;;;12.15;68.01;95629.91;5115923;28;20184;-70
2022/10/24 00:16:18;;;;;;;8.95;8.05;;;;;;;12.13;68.39;95635.78;5097947;28;20204;-70
2022/10/24 00:18:46;;;;;;;7.97;7.18;;;;;;;12.10;68.57;95633.72;5098339;28;20206;-70
2022/10/24 00:21:13;;;;;;;8.68;7.88;;;;;;;12.10;68.62;95627.41;5097939;28;20230;-70
2022/10/24 00:23:40;;;;;;;8.32;7.47;;;;;;;12.08;68.61;95624.16;5115923;28;20196;-70
2022/10/24 00:26:07;;;;;;;9.93;7.93;;;;;;;12.04;68.33;95626.81;5098093;28;20199;-70
2022/10/24 00:28:36;;;;;;;8.85;7.80;;;;;;;12.00;68.52;95614.84;5115883;28;20194;-70
2022/10/24 00:31:04;;;;;;;8.57;7.78;;;;;;;11.94;68.75;95619.00;5098045;28;20199;-70
2022/10/24 00:33:32;;;;;;;8.25;7.45;;;;;;;11.91;68.90;95622.44;5098098;28;20203;-70
2022/10/24 00:36:00;;;;;;;10.27;7.70;;;;;;;11.89;68.57;95622.00;5097998;28;20203;-70
2022/10/24 00:38:27;;;;;;;8.95;7.75;;;;;;;11.87;68.87;95621.53;5097994;28;20196;-70
2022/10/24 00:40:53;;;;;;;8.10;7.30;;;;;;;11.86;68.68;95617.97;5115777;28;20207;-71
2022/10/24 00:43:22;;;;;;;8.52;7.72;;;;;;;11.87;68.64;95618.78;5115437;28;20559;-70
2022/10/24 00:45:54;;;;;;;8.20;7.40;;;;;;;11.85;69.06;95624.66;5115684;28;20187;-70
2022/10/24 00:48:24;;;;;;;8.07;7.38;;;;;;;11.87;69.42;95618.78;5097412;28;20241;-70
2022/10/24 00:50:53;;;;;;;8.40;7.60;;;;;;;11.87;69.02;95614.06;5115216;28;20172;-70
2022/10/24 00:53:22;;;;;;;9.25;7.43;;;;;;;11.88;69.44;95615.69;5097903;28;20191;-71
2022/10/24 00:55:51;;;;;;;7.85;7.15;;;;;;;11.91;69.57;95615.00;5115062;27;20254;-71
2022/10/24 00:58:22;;;;;;;8.23;7.53;;;;;;;11.92;69.23;95621.31;5115639;28;20188;-70
2022/10/24 01:00:49;;;;;;;9.00;8.18;;;;;;;11.90;69.19;95624.41;5097579;28;20283;-70
2022/10/24 01:03:15;;;;;;;8.95;8.15;;;;;;;11.84;68.60;95614.78;5115568;28;20191;-70
2022/10/24 01:05:53;;;;;;;8.35;7.53;;;;;;;11.76;68.85;95615.66;5097380;28;20203;-70
2022/10/24 01:08:28;;;;;;;8.48;7.60;;;;;;;11.71;68.74;95621.41;5097287;28;20206;-70
2022/10/24 01:11:00;;;;;;;8.45;7.65;;;;;;;11.64;68.96;95619.22;5115473;28;20179;-70
2022/10/24 01:13:35;;;;;;;7.88;7.07;;;;;;;11.62;68.81;95626.25;5115474;28;20183;-70
2022/10/24 01:16:06;;;;;;;7.72;6.93;;;;;;;11.54;68.66;95614.97;5097347;28;20202;-70
2022/10/24 01:18:37;;;;;;;8.50;7.60;;;;;;;11.46;68.37;95621.41;5097585;28;20527;-70
2022/10/24 01:21:13;;;;;;;8.00;7.22;;;;;;;11.45;68.82;95622.59;5115453;28;20276;-70
2022/10/24 01:24:02;;;;;;;8.18;7.22;;;;;;;11.44;68.58;95628.47;5097520;28;20587;-70
2022/10/24 01:26:54;;;;;;;7.72;7.03;;;;;;;11.42;69.20;95631.56;5097088;28;20543;-70
2022/10/24 01:29:43;;;;;;;8.02;7.32;;;;;;;11.41;69.21;95627.19;5093681;28;20242;-70
2022/10/24 01:32:14;;;;;;;8.07;7.28;;;;;;;11.45;69.24;95627.31;5095331;28;20206;-70
2022/10/24 01:34:44;;;;;;;9.50;7.40;;;;;;;11.45;68.98;95630.88;5097641;28;20196;-70
2022/10/24 01:37:16;;;;;;;7.85;7.15;;;;;;;11.42;69.27;95631.56;5097452;28;20196;-70
2022/10/24 01:39:46;;;;;;;8.05;7.25;;;;;;;11.42;69.09;95628.78;5115133;28;20195;-70
2022/10/24 01:42:15;;;;;;;8.80;7.82;;;;;;;11.41;68.82;95638.22;5097354;28;20217;-70
2022/10/24 01:44:46;;;;;;;8.10;7.30;;;;;;;11.39;69.39;95634.19;5115230;28;20199;-70
2022/10/24 01:47:16;;;;;;;8.48;7.63;;;;;;;11.40;69.38;95622.81;5115175;28;20187;-70
2022/10/24 01:49:46;;;;;;;11.95;7.88;;;;;;;11.43;69.71;95624.06;5097365;28;20203;-73
2022/10/24 01:52:15;;;;;;;8.48;7.70;;;;;;;11.42;69.63;95623.25;5097253;28;20192;-70
2022/10/24 01:54:42;;;;;;;8.50;7.70;;;;;;;11.43;69.84;95610.25;5103522;28;20235;-69
2022/10/24 01:57:09;;;;;;;7.70;7.00;;;;;;;11.40;69.48;95613.72;5117827;28;20199;-70
2022/10/24 01:59:45;;;;;;;7.85;7.05;;;;;;;11.31;69.28;95619.34;5135221;28;20187;-69
2022/10/24 02:02:15;;;;;;;7.57;6.85;;;;;;;11.29;69.54;95624.41;5117454;28;20217;-69
2022/10/24 02:04:48;;;;;;;9.00;6.40;;;;;;;11.22;69.52;95618.63;5121266;27;20188;-70
2022/10/24 02:07:16;;;;;;;8.00;7.13;;;;;;;11.20;69.08;95620.97;5120955;27;20198;-69
2022/10/24 02:09:44;;;;;;;7.55;6.85;;;;;;;11.20;69.64;95626.47;5139253;27;20191;-70
2022/10/24 02:12:12;;;;;;;8.30;7.50;;;;;;;11.19;69.52;95622.13;5121085;27;20252;-70
2022/10/24 02:14:41;;;;;;;7.63;6.93;;;;;;;11.20;69.47;95626.47;5138776;27;20619;-70
2022/10/24 02:17:10;;;;;;;8.02;7.05;;;;;;;11.21;69.52;95628.06;5138814;27;20617;-70
2022/10/24 02:19:38;;;;;;;8.20;7.40;;;;;;;11.21;69.40;95625.31;5139164;27;20215;-70
2022/10/24 02:22:11;;;;;;;9.63;7.00;;;;;;;11.18;69.13;95623.25;5138986;27;20634;-69
2022/10/24 02:24:42;;;;;;;7.72;6.78;;;;;;;11.15;69.14;95626.69;5138562;27;20638;-69
2022/10/24 02:27:12;;;;;;;7.82;7.18;;;;;;;11.13;69.51;95624.28;5120511;27;20208;-69
2022/10/24 02:29:43;;;;;;;7.95;7.15;;;;;;;11.09;69.51;95624.16;5120710;27;20198;-69
2022/10/24 02:32:15;;;;;;;8.68;7.47;;;;;;;11.07;69.60;95632.00;5138763;27;20206;-69
2022/10/24 02:34:43;;;;;;;7.97;6.93;;;;;;;11.09;69.97;95629.69;5138927;27;20199;-69
2022/10/24 02:37:11;;;;;;;9.43;7.72;;;;;;;11.11;69.75;95628.53;5120449;27;20194;-70
2022/10/24 02:39:39;;;;;;;9.52;8.48;;;;;;;11.13;69.91;95627.03;5120380;27;20199;-70
2022/10/24 02:42:07;;;;;;;9.50;8.45;;;;;;;11.14;70.23;95623.13;5120170;27;20219;-69
2022/10/24 02:44:35;;;;;;;8.45;7.65;;;;;;;11.14;69.91;95625.88;5120715;27;20205;-69
2022/10/24 02:47:04;;;;;;;9.45;8.65;;;;;;;11.14;69.99;95625.88;5120320;27;20191;-69
2022/10/24 02:49:32;;;;;;;8.88;7.90;;;;;;;11.15;70.15;95623.91;5120158;27;20198;-69
2022/10/24 02:51:59;;;;;;;8.55;7.55;;;;;;;11.13;69.84;95618.75;5138097;27;20179;-69
2022/10/24 02:54:26;;;;;;;11.02;7.70;;;;;;;11.16;70.08;95620.03;5134069;27;20227;-70
2022/10/24 02:56:55;;;;;;;8.45;7.65;;;;;;;11.15;69.97;95623.91;5117415;28;20187;-70
2022/10/24 02:59:22;;;;;;;8.88;8.00;;;;;;;11.17;69.65;95621.63;5099911;28;20191;-70
2022/10/24 03:01:48;;;;;;;8.18;7.38;;;;;;;11.13;69.46;95620.72;5117462;28;20207;-70
2022/10/24 03:04:15;;;;;;;9.68;7.63;;;;;;;11.08;69.82;95614.28;5117533;28;20184;-68
2022/10/24 03:06:44;;;;;;;8.15;7.32;;;;;;;11.08;69.77;95613.47;5099430;28;20214;-68
2022/10/24 03:09:10;;;;;;;9.50;8.50;;;;;;;11.03;69.70;95620.00;5117552;28;20176;-68
2022/10/24 03:11:37;;;;;;;8.30;7.50;;;;;;;10.99;69.63;95619.06;5099547;28;20187;-68
2022/10/24 03:14:04;;;;;;;10.27;7.68;;;;;;;11.00;69.45;95611.59;5116732;28;20523;-68
2022/10/24 03:16:31;;;;;;;9.30;7.40;;;;;;;10.99;69.83;95619.06;5117298;28;20192;-69
2022/10/24 03:18:58;;;;;;;8.98;8.10;;;;;;;10.97;69.49;95621.38;5117305;28;20196;-68
2022/10/24 03:21:25;;;;;;;8.55;7.57;;;;;;;10.93;69.68;95614.94;5116989;28;20207;-68
2022/10/24 03:23:53;;;;;;;10.38;8.02;;;;;;;10.83;69.71;95607.91;5099296;28;20211;-68
2022/10/24 03:26:20;;;;;;;8.65;7.50;;;;;;;10.81;69.80;95612.13;5117005;28;20180;-68
2022/10/24 03:28:47;;;;;;;9.55;7.47;;;;;;;10.81;70.07;95612.13;5117133;28;20180;-69
2022/10/24 03:31:14;;;;;;;8.45;7.68;;;;;;;10.83;69.66;95607.09;5099053;28;20238;-68
2022/10/24 03:33:41;;;;;;;8.40;7.47;;;;;;;10.81;69.82;95609.38;5098814;28;20203;-69
2022/10/24 03:36:08;;;;;;;8.70;7.60;;;;;;;10.81;69.67;95604.66;5098757;28;20203;-69
2022/10/24 03:38:35;;;;;;;9.60;8.38;;;;;;;10.80;70.30;95607.78;5099035;28;20200;-69
2022/10/24 03:41:04;;;;;;;9.60;7.75;;;;;;;10.80;70.01;95613.28;5116838;28;20204;-69
2022/10/24 03:43:30;;;;;;;11.02;9.38;;;;;;;10.80;70.45;95616.06;5099325;28;20200;-69
2022/10/24 03:45:58;;;;;;;8.48;7.68;;;;;;;10.74;70.09;95609.13;5099097;28;20200;-72
2022/10/24 03:48:25;;;;;;;9.93;8.38;;;;;;;10.73;70.58;95618.56;5098527;28;20204;-69
2022/10/24 03:50:52;;;;;;;10.55;8.38;;;;;;;10.74;70.26;95614.63;5099443;28;20195;-69
2022/10/24 03:53:19;;;;;;;9.18;8.18;;;;;;;10.73;70.38;95616.59;5098800;28;20194;-69
2022/10/24 03:55:46;;;;;;;10.73;8.27;;;;;;;10.73;70.45;95605.56;5113588;27;20239;-69
2022/10/24 03:58:14;;;;;;;9.70;8.35;;;;;;;10.66;70.03;95610.81;5136866;27;20191;-69
2022/10/24 04:00:41;;;;;;;9.82;8.45;;;;;;;10.63;70.32;95607.94;5119267;27;20223;-69
2022/10/24 04:03:08;;;;;;;11.48;8.77;;;;;;;10.64;70.35;95615.91;5137332;27;20191;-69
2022/10/24 04:05:36;;;;;;;11.55;8.43;;;;;;;10.65;70.57;95613.94;5136958;27;20222;-70
2022/10/24 04:08:03;;;;;;;10.18;9.05;;;;;;;10.66;70.10;95607.28;5118568;27;20199;-70
2022/10/24 04:10:30;;;;;;;10.65;8.63;;;;;;;10.67;70.42;95608.88;5118743;27;20199;-70
2022/10/24 04:12:57;;;;;;;10.65;8.98;;;;;;;10.68;70.63;95602.22;5118522;27;20645;-70
2022/10/24 04:15:25;;;;;;;10.77;8.65;;;;;;;10.64;70.42;95604.88;5136843;27;20183;-70
2022/10/24 04:17:52;;;;;;;10.95;9.50;;;;;;;10.66;70.64;95607.28;5136805;27;20199;-70
2022/10/24 04:20:21;;;;;;;10.05;9.02;;;;;;;10.63;70.54;95603.22;5136681;27;20190;-70
2022/10/24 04:22:48;;;;;;;11.90;8.52;;;;;;;10.59;70.28;95605.06;5136720;27;20224;-70
2022/10/24 04:25:15;;;;;;;10.98;8.70;;;;;;;10.59;70.81;95605.84;5118263;27;20191;-69
2022/10/24 04:27:42;;;;;;;11.52;8.15;;;;;;;10.59;70.78;95602.31;5136198;27;20179;-70
2022/10/24 04:30:11;;;;;;;10.60;8.82;;;;;;;10.63;70.74;95607.94;5136176;27;20634;-70
2022/10/24 04:32:39;;;;;;;10.38;9.27;;;;;;;10.64;70.72;95612.31;5136876;27;20190;-70
2022/10/24 04:35:07;;;;;;;11.52;9.52;;;;;;;10.64;70.88;95612.31;5136580;27;20195;-70
2022/10/24 04:37:34;;;;;;;13.10;9.40;;;;;;;10.62;70.87;95612.66;5119008;27;20201;-70
2022/10/24 04:40:01;;;;;;;17.15;9.82;;;;;;;10.61;70.82;95613.81;5118636;27;20195;-70
2022/10/24 04:42:29;;;;;;;16.98;10.07;;;;;;;10.60;70.97;95614.94;5118246;27;20238;-69
2022/10/24 04:44:56;;;;;;;13.35;9.02;;;;;;;10.60;70.54;95617.69;5118540;27;20191;-70
2022/10/24 04:47:23;;;;;;;14.38;9.40;;;;;;;10.63;70.66;95617.03;5118832;27;20202;-70
2022/10/24 04:49:51;;;;;;;13.88;10.20;;;;;;;10.61;70.27;95616.56;5118401;27;20198;-70
2022/10/24 04:52:18;;;;;;;14.23;9.85;;;;;;;10.58;70.73;95622.75;5118201;28;20506;-70
2022/10/24 04:54:45;;;;;;;12.10;9.68;;;;;;;10.56;70.76;95616.75;5118287;27;20234;-70
2022/10/24 04:57:11;;;;;;;16.58;10.05;;;;;;;10.53;70.99;95623.78;5117817;28;20684;-69
2022/10/24 04:59:38;;;;;;;13.70;9.77;;;;;;;10.56;71.21;95622.28;5118192;28;20190;-69
2022/10/24 05:02:05;;;;;;;15.95;10.75;;;;;;;10.57;70.85;95619.19;5117946;28;20207;-69
2022/10/24 05:04:32;;;;;;;16.08;10.38;;;;;;;10.54;71.02;95617.13;5118006;28;20195;-69
2022/10/24 05:07:00;;;;;;;24.50;11.32;;;;;;;10.54;70.91;95621.84;5117967;28;20207;-69
2022/10/24 05:09:27;;;;;;;14.38;11.60;;;;;;;10.50;70.54;95620.91;5118071;28;20513;-69
2022/10/24 05:11:54;;;;;;;16.02;11.50;;;;;;;10.47;70.36;95624.34;5117699;28;20535;-70
2022/10/24 05:14:21;;;;;;;16.67;10.82;;;;;;;10.43;70.91;95624.19;5117774;28;20202;-70
2022/10/24 05:16:48;;;;;;;18.80;11.77;;;;;;;10.44;70.83;95628.56;5117733;28;20195;-70
2022/10/24 05:19:15;;;;;;;15.02;10.85;;;;;;;10.44;71.15;95627.75;5117916;28;20219;-69
2022/10/24 05:21:42;;;;;;;17.20;10.73;;;;;;;10.44;70.89;95625.81;5117983;28;20221;-70
2022/10/24 05:24:10;;;;;;;16.70;10.60;;;;;;;10.44;70.90;95625.81;5135615;28;20191;-70
2022/10/24 05:26:37;;;;;;;22.33;11.55;;;;;;;10.45;70.97;95619.13;5136143;28;20199;-69
2022/10/24 05:29:04;;;;;;;18.05;10.85;;;;;;;10.45;71.01;95621.91;5118237;28;20195;-70
2022/10/24 05:31:30;;;;;;;21.50;12.35;;;;;;;10.46;71.25;95620.78;5135625;28;20183;-69
2022/10/24 05:33:57;;;;;;;17.70;11.52;;;;;;;10.45;71.17;95623.84;5117561;28;20195;-70
2022/10/24 05:36:24;;;;;;;21.02;10.93;;;;;;;10.46;71.32;95623.53;5135825;28;20187;-70
2022/10/24 05:38:50;;;;;;;17.33;10.73;;;;;;;10.50;71.28;95631.94;5139204;27;20517;-70
2022/10/24 05:41:18;;;;;;;16.88;10.55;;;;;;;10.51;71.54;95628.81;5122115;27;20214;-70
2022/10/24 05:43:45;;;;;;;17.00;10.63;;;;;;;10.52;71.59;95632.38;5121866;27;20191;-70
2022/10/24 05:46:15;;;;;;;15.57;10.20;;;;;;;10.55;71.68;95635.28;5121535;27;20187;-70
2022/10/24 05:48:42;;;;;;;24.38;11.18;;;;;;;10.60;72.07;95635.06;5121585;27;20191;-70
2022/10/24 05:51:08;;;;;;;18.00;11.80;;;;;;;10.65;71.78;95645.09;5139860;27;20196;-70
2022/10/24 05:53:36;;;;;;;15.68;10.95;;;;;;;10.70;72.07;95642.09;5121726;27;20195;-69
2022/10/24 05:56:04;;;;;;;16.98;11.55;;;;;;;10.73;72.29;95646.94;5139272;27;20226;-69
2022/10/24 05:58:32;;;;;;;18.33;11.75;;;;;;;10.77;72.03;95647.88;5139450;27;20268;-70
2022/10/24 06:00:59;;;;;;;17.60;11.95;;;;;;;10.83;72.00;95646.53;5121720;27;20195;-70
2022/10/24 06:03:26;;;;;;;20.70;12.38;;;;;;;10.86;72.22;95656.09;5121341;27;20215;-70
2022/10/24 06:05:53;;;;;;;20.45;13.35;;;;;;;10.90;72.38;95664.50;5121141;27;20191;-69
2022/10/24 06:08:19;;;;;;;10.02;8.32;;;;;;;10.94;72.15;95665.41;5121883;27;20199;-69
2022/10/24 06:10:47;;;;;;;6.93;6.30;;;;;;;10.96;71.24;95669.44;5121439;27;20187;-69
2022/10/24 06:13:14;;;;;;;7.43;6.60;;;;;;;10.99;71.01;95663.22;5121222;27;20187;-70
2022/10/24 06:15:42;;;;;;;8.65;7.60;;;;;;;11.05;71.07;95659.13;5139204;27;20191;-69
2022/10/24 06:18:09;;;;;;;6.65;6.03;;;;;;;11.11;70.72;95658.88;5120644;27;20203;-69
2022/10/24 06:20:37;;;;;;;9.82;7.60;;;;;;;11.16;70.84;95662.25;5121182;27;20187;-69
2022/10/24 06:23:04;;;;;;;8.60;7.25;;;;;;;11.19;70.62;95660.75;5121223;27;20494;-69
2022/10/24 06:25:31;;;;;;;9.23;7.70;;;;;;;11.20;70.82;95663.16;5121216;27;20202;-70
2022/10/24 06:27:57;;;;;;;8.90;8.00;;;;;;;11.27;70.70;95666.19;5120648;27;20199;-69
2022/10/24 06:30:24;;;;;;;8.85;7.75;;;;;;;11.35;70.61;95667.22;5120880;27;20203;-69
2022/10/24 06:32:53;;;;;;;9.15;7.70;;;;;;;11.41;70.19;95668.63;5120951;27;20191;-70
2022/10/24 06:35:19;;;;;;;9.07;7.60;;;;;;;11.47;70.14;95661.69;5120914;27;20203;-69
2022/10/24 06:37:46;;;;;;;10.38;8.43;;;;;;;11.54;70.25;95666.66;5120548;27;20202;-70
2022/10/24 06:40:13;;;;;;;11.13;8.38;;;;;;;11.63;70.02;95674.84;5120250;27;20198;-70
2022/10/24 06:42:40;;;;;;;9.80;8.25;;;;;;;11.68;70.02;95678.19;5120182;27;20220;-70
2022/10/24 06:45:07;;;;;;;11.88;9.00;;;;;;;11.74;70.20;95676.00;5120300;27;20191;-70
2022/10/24 06:47:34;;;;;;;11.95;9.27;;;;;;;11.79;69.79;95676.56;5120179;27;20195;-70
2022/10/24 06:50:02;;;;;;;12.00;10.10;;;;;;;11.86;70.24;95678.78;5119557;27;20187;-70
2022/10/24 06:52:29;;;;;;;12.98;10.35;;;;;;;11.93;70.10;95680.97;5119957;27;20206;-70
2022/10/24 06:54:56;;;;;;;12.20;10.15;;;;;;;12.00;70.73;95687.53;5119841;27;20227;-70
2022/10/24 06:57:23;;;;;;;11.40;10.23;;;;;;;12.05;70.70;95683.72;5138410;27;20190;-70
2022/10/24 06:59:49;;;;;;;13.85;11.98;;;;;;;12.11;69.67;95684.28;5138192;27;20198;-70
2022/10/24 07:02:16;;;;;;;16.45;12.80;;;;;;;12.17;69.63;95685.69;5120077;27;20246;-70
2022/10/24 07:04:43;;;;;;;14.35;12.85;;;;;;;12.22;69.66;95682.66;5119925;27;20195;-70
2022/10/24 07:07:15;;;;;;;15.43;13.10;;;;;;;12.29;69.56;95682.88;5119810;27;20563;-70
2022/10/24 07:09:42;;;;;;;14.15;11.52;;;;;;;12.36;69.31;95680.34;5119672;27;20255;-70
2022/10/24 07:12:09;;;;;;;13.30;11.93;;;;;;;12.43;68.84;95683.31;5119969;27;20203;-70
2022/10/24 07:14:36;;;;;;;16.83;11.40;;;;;;;12.47;68.55;95680.66;5120582;27;20203;-70
2022/10/24 07:17:03;;;;;;;14.13;11.25;;;;;;;12.55;68.15;95676.94;5119696;27;20203;-70
2022/10/24 07:19:30;;;;;;;12.73;11.18;;;;;;;12.62;67.90;95676.34;5119445;27;20655;-70
2022/10/24 07:21:57;;;;;;;13.07;10.30;;;;;;;12.67;67.81;95676.91;5119811;27;20225;-70
2022/10/24 07:24:25;;;;;;;12.93;10.55;;;;;;;12.72;67.42;95673.06;5137517;27;20619;-70
2022/10/24 07:26:52;;;;;;;11.45;10.30;;;;;;;12.83;68.54;95671.41;5119332;27;20626;-70
2022/10/24 07:29:19;;;;;;;12.48;9.35;;;;;;;12.96;68.57;95674.91;5119425;27;20209;-69
2022/10/24 07:31:46;;;;;;;13.57;10.60;;;;;;;13.04;67.70;95662.91;5119478;27;20205;-69
2022/10/24 07:34:13;;;;;;;12.10;10.82;;;;;;;13.14;67.05;95661.56;5119468;27;20274;-70
2022/10/24 07:36:40;;;;;;;11.32;10.10;;;;;;;13.21;67.01;95667.28;5120085;27;20194;-70
2022/10/24 07:39:07;;;;;;;13.90;11.45;;;;;;;13.30;67.45;95667.97;5119712;27;20183;-69
2022/10/24 07:41:38;;;;;;;14.07;11.57;;;;;;;13.40;66.66;95675.75;5119455;27;20206;-69
2022/10/24 07:44:04;;;;;;;15.07;12.70;;;;;;;13.48;66.51;95676.75;5119275;27;20199;-70
2022/10/24 07:46:31;;;;;;;18.90;14.35;;;;;;;13.59;67.20;95674.25;5118983;27;20202;-70
2022/10/24 07:48:58;;;;;;;15.98;14.15;;;;;;;13.70;67.29;95675.31;5119675;27;20195;-70
2022/10/24 07:51:27;;;;;;;19.63;17.52;;;;;;;13.84;66.70;95664.56;5119357;27;20206;-70
2022/10/24 07:53:54;;;;;;;28.27;24.10;;;;;;;13.94;66.04;95669.56;5118896;27;20195;-70
2022/10/24 07:56:21;;;;;;;27.15;24.38;;;;;;;14.07;65.45;95661.13;5118858;27;20271;-70
2022/10/24 07:58:49;;;;;;;27.67;24.90;;;;;;;14.15;64.36;95666.47;5119490;27;20191;-70
2022/10/24 08:01:17;;;;;;;28.40;25.08;;;;;;;14.24;64.22;95671.03;5119137;27;20629;-70
2022/10/24 08:03:45;;;;;;;21.58;19.27;;;;;;;14.34;64.67;95665.72;5118939;27;20206;-70
2022/10/24 08:06:13;;;;;;;21.77;17.58;;;;;;;14.45;65.14;95664.00;5118967;27;20199;-70
2022/10/24 08:08:40;;;;;;;21.52;17.45;;;;;;;14.55;64.39;95653.50;5119056;27;20625;-70
2022/10/24 08:11:08;;;;;;;22.88;19.55;;;;;;;14.66;63.74;95652.53;5118732;27;20209;-70
2022/10/24 08:13:35;;;;;;;20.23;18.15;;;;;;;14.78;63.33;95648.84;5118834;27;20187;-70
2022/10/24 08:16:05;;;;;;;16.35;13.73;;;;;;;14.87;63.08;95654.16;5118382;27;20206;-70
2022/10/24 08:18:32;;;;;;;15.60;10.65;;;;;;;14.97;61.91;95652.78;5119016;27;20195;-70
2022/10/24 08:20:59;;;;;;;14.13;9.80;;;;;;;15.07;61.84;95657.72;5118668;27;20260;-70
2022/10/24 08:23:26;;;;;;;14.38;9.88;;;;;;;15.14;60.80;95647.56;5136743;27;20216;-70
2022/10/24 08:25:53;;;;;;;11.95;9.38;;;;;;;15.23;62.14;95650.09;5118241;27;20202;-70
2022/10/24 08:28:20;;;;;;;12.73;8.88;;;;;;;15.31;60.84;95651.81;5118556;27;20598;-70
2022/10/24 08:30:55;;;;;;;10.45;9.18;;;;;;;15.36;60.79;95650.75;5118447;28;20529;-69
2022/10/24 08:33:23;;;;;;;13.25;9.05;;;;;;;15.46;60.14;95643.75;5118683;27;20198;-70
2022/10/24 08:35:50;;;;;;;10.77;8.88;;;;;;;15.50;60.90;95644.59;5118396;27;20564;-70
2022/10/24 08:38:17;;;;;;;14.27;9.50;;;;;;;15.66;61.16;95639.75;5118033;27;20191;-70
2022/10/24 08:40:47;;;;;;;11.82;8.00;;;;;;;15.77;58.58;95640.75;5136545;27;20183;-69
2022/10/24 08:43:14;;;;;;;10.20;8.07;;;;;;;15.81;58.55;95641.59;5118156;27;20218;-69
2022/10/24 08:45:48;;;;;;;11.45;8.20;;;;;;;15.88;59.80;95636.16;5136410;27;20199;-70
2022/10/24 08:48:17;;;;;;;12.48;8.52;;;;;;;16.01;58.80;95622.84;5118305;27;20642;-69
2022/10/24 08:50:49;;;;;;;11.80;9.38;;;;;;;16.10;58.92;95628.13;5118579;28;20187;-69
2022/10/24 08:53:21;;;;;;;14.13;10.40;;;;;;;16.17;57.71;95625.44;5118283;27;20191;-70
2022/10/24 08:55:50;;;;;;;13.70;9.60;;;;;;;16.20;58.47;95616.34;5136204;27;20659;-70
2022/10/24 08:58:20;;;;;;;12.50;9.77;;;;;;;16.29;59.29;95614.09;5117797;28;20199;-69
2022/10/24 09:00:48;;;;;;;13.95;10.18;;;;;;;16.45;58.46;95619.50;5136318;28;20195;-70
2022/10/24 09:03:20;;;;;;;11.38;9.60;;;;;;;16.68;58.10;95613.00;5136054;28;20207;-70
2022/10/24 09:05:51;;;;;;;14.88;10.80;;;;;;;16.77;56.73;95607.97;5136046;28;20186;-70
2022/10/24 09:08:25;;;;;;;13.65;11.95;;;;;;;16.86;56.86;95608.47;5135977;28;20495;-70
2022/10/24 09:10:55;;;;;;;15.77;11.32;;;;;;;16.94;56.80;95612.94;5135969;28;20182;-70
2022/10/24 09:13:22;;;;;;;16.42;13.32;;;;;;;17.08;54.75;95607.53;5121010;27;20194;-69
2022/10/24 09:15:49;;;;;;;18.42;13.98;;;;;;;17.16;56.49;95604.81;5122432;27;20195;-70
2022/10/24 09:18:19;;;;;;;17.58;13.23;;;;;;;17.28;55.82;95604.53;5121847;27;20195;-70
2022/10/24 09:20:46;;;;;;;22.85;14.85;;;;;;;17.37;55.15;95605.03;5121849;27;20186;-70
2022/10/24 09:23:15;;;;;;;19.75;14.48;;;;;;;17.47;55.20;95595.97;5121736;27;20218;-70
2022/10/24 09:25:45;;;;;;;15.80;12.45;;;;;;;17.56;54.93;95604.00;5122152;27;20211;-70
2022/10/24 09:28:12;;;;;;;15.23;12.73;;;;;;;17.64;55.47;95596.50;5121628;27;20202;-70
2022/10/24 09:30:39;;;;;;;17.33;12.68;;;;;;;17.71;54.90;95599.34;5122060;27;20198;-70
2022/10/24 09:33:14;;;;;;;17.08;12.40;;;;;;;17.83;54.46;95587.94;5122300;27;20195;-70
2022/10/24 09:35:44;;;;;;;18.02;16.13;;;;;;;17.89;52.38;95591.94;5121573;27;20201;-70
2022/10/24 09:38:30;;;;;;;18.02;15.88;;;;;;;17.93;53.07;95580.81;5122065;27;20206;-70
2022/10/24 09:41:01;;;;;;;18.25;15.45;;;;;;;18.05;53.47;95583.28;5121590;27;20210;-70
2022/10/24 09:43:33;;;;;;;16.73;14.00;;;;;;;18.17;53.58;95587.75;5139254;27;20640;-70
2022/10/24 09:46:03;;;;;;;16.33;12.63;;;;;;;18.26;53.11;95590.97;5139688;27;20172;-70
2022/10/24 09:48:36;;;;;;;15.15;12.35;;;;;;;18.29;53.06;95573.44;5121575;27;20664;-70
2022/10/24 09:51:03;;;;;;;17.00;12.60;;;;;;;18.38;52.69;95573.91;5139408;27;20191;-70
2022/10/24 09:53:33;;;;;;;17.10;13.25;;;;;;;18.41;53.39;95581.50;5139534;27;20171;-70
2022/10/24 09:56:02;;;;;;;16.17;13.40;;;;;;;18.58;53.16;95571.59;5120963;27;20222;-70
2022/10/24 09:58:32;;;;;;;14.57;12.38;;;;;;;18.69;52.45;95580.03;5139201;27;20186;-70
2022/10/24 10:01:03;;;;;;;17.13;12.27;;;;;;;18.64;52.25;95566.44;5139827;27;20192;-70
2022/10/24 10:03:30;;;;;;;12.77;11.43;;;;;;;18.59;52.65;95567.63;5121215;27;20642;-70
2022/10/24 10:05:58;;;;;;;13.00;11.52;;;;;;;18.58;52.76;95573.59;5139392;27;20194;-70
2022/10/24 10:08:27;;;;;;;14.38;12.27;;;;;;;18.72;52.48;95563.31;5121015;27;20203;-70
2022/10/24 10:11:05;;;;;;;16.23;12.10;;;;;;;18.79;51.37;95556.16;5139271;27;20206;-70
2022/10/24 10:13:37;;;;;;;13.90;11.57;;;;;;;18.93;51.56;95559.78;5139156;27;20515;-70
2022/10/24 10:16:06;;;;;;;16.63;11.73;;;;;;;18.99;51.94;95555.41;5139138;27;20183;-70
2022/10/24 10:18:35;;;;;;;16.33;11.43;;;;;;;19.04;51.17;95553.44;5138858;27;20626;-70
2022/10/24 10:21:14;;;;;;;14.15;11.15;;;;;;;19.10;51.37;95547.06;5139094;27;20193;-70
2022/10/24 10:23:43;;;;;;;18.98;12.48;;;;;;;19.15;50.63;95552.25;5137423;27;20202;-70
2022/10/24 10:26:21;;;;;;;14.25;10.82;;;;;;;19.24;51.77;95546.25;5120511;27;20202;-70
2022/10/24 10:28:55;;;;;;;19.10;11.45;;;;;;;19.31;51.54;95549.06;5138928;27;20211;-70
2022/10/24 10:31:25;;;;;;;15.15;11.32;;;;;;;19.33;50.45;95548.69;5120848;27;20202;-70
2022/10/24 10:34:01;;;;;;;12.50;10.43;;;;;;;19.38;51.12;95532.28;5138872;27;20195;-70
2022/10/24 10:36:32;;;;;;;17.67;11.45;;;;;;;19.52;51.22;95539.09;5138560;27;20591;-70
2022/10/24 10:39:23;;;;;;;16.08;10.75;;;;;;;19.53;50.69;95535.88;5138974;27;20179;-70
2022/10/24 10:41:56;;;;;;;16.23;11.23;;;;;;;19.58;51.11;95534.69;5120653;27;20198;-70
2022/10/24 10:44:50;;;;;;;16.52;11.13;;;;;;;19.60;50.29;95532.28;5138537;27;20214;-70
2022/10/24 10:47:25;;;;;;;17.90;12.45;;;;;;;19.68;49.11;95523.53;5138570;27;20203;-70
2022/10/24 10:49:55;;;;;;;17.42;11.70;;;;;;;19.67;49.73;95524.72;5138244;27;20548;-70
2022/10/24 10:52:25;;;;;;;15.15;10.40;;;;;;;19.63;50.09;95511.94;5138428;27;20542;-70
2022/10/24 10:55:14;;;;;;;15.60;11.60;;;;;;;19.65;50.32;95524.34;5120471;27;20242;-70
2022/10/24 10:57:49;;;;;;;12.90;10.90;;;;;;;19.72;49.49;95517.94;5120238;27;20264;-70
2022/10/24 11:00:19;;;;;;;14.00;11.10;;;;;;;19.73;49.00;95505.53;5138245;27;20200;-70
2022/10/24 11:03:15;;;;;;;19.23;11.32;;;;;;;19.77;49.21;95506.31;5138233;27;20179;-70
2022/10/24 11:05:49;;;;;;;13.32;10.13;;;;;;;19.79;48.47;95505.91;5138337;27;20191;-70
2022/10/24 11:08:33;;;;;;;16.25;10.30;;;;;;;19.80;49.57;95499.13;5120083;27;20205;-70
2022/10/24 11:11:02;;;;;;;17.55;10.90;;;;;;;19.85;48.94;95493.91;5120310;27;20187;-70
2022/10/24 11:13:34;;;;;;;15.00;10.73;;;;;;;19.90;48.45;95496.31;5119983;27;20199;-70
2022/10/24 11:16:03;;;;;;;14.75;10.25;;;;;;;19.92;48.86;95484.69;5138041;27;20591;-70
2022/10/24 11:18:32;;;;;;;12.20;9.82;;;;;;;19.97;49.06;95484.28;5137670;27;20664;-70
2022/10/24 11:21:02;;;;;;;13.70;9.50;;;;;;;19.99;48.09;95481.88;5119922;27;20516;-70
2022/10/24 11:23:33;;;;;;;11.85;9.90;;;;;;;20.06;48.25;95475.47;5119826;27;20207;-70
2022/10/24 11:26:03;;;;;;;18.63;10.00;;;;;;;20.11;49.02;95484.25;5119747;27;20194;-70
2022/10/24 11:28:33;;;;;;;12.75;9.82;;;;;;;20.07;47.67;95469.47;5137925;27;20206;-70
2022/10/24 11:31:03;;;;;;;15.10;9.43;;;;;;;20.13;48.65;95467.84;5119634;27;20199;-71
2022/10/24 11:33:35;;;;;;;14.05;10.13;;;;;;;20.19;47.48;95462.63;5137647;27;20176;-70